Time;durP1;ratioP1;P1;durP2;ratioP2;P2;SDS_P1;SDS_P2;PMS_P1;PMS_P2;Temp;Humidity;BMP_temperature;BMP_pressure;BME280_temperature;BME280_humidity;BME280_pressure;Samples;Min_cycle;Max_cycle;Signal;HPM_P1;HPM_P2
2023/03/05 00:01:24;;;;;;;6.93;1.45;;;4.10;99.90;;;;;;4986441;28;20166;-60
2023/03/05 00:03:51;;;;;;;3.65;1.17;;;4.20;99.90;;;;;;5007405;28;20428;-60
2023/03/05 00:06:18;;;;;;;7.57;2.55;;;4.20;99.90;;;;;;5007627;28;20117;-60
2023/03/05 00:08:44;;;;;;;3.90;1.38;;;4.10;99.90;;;;;;5005203;28;20042;-60
2023/03/05 00:11:11;;;;;;;7.00;1.60;;;4.20;99.90;;;;;;5005889;28;20034;-60
2023/03/05 00:13:38;;;;;;;7.15;1.50;;;4.20;99.90;;;;;;4999661;28;20064;-61
2023/03/05 00:16:06;;;;;;;6.38;1.83;;;4.20;99.90;;;;;;4996741;28;20417;-60
2023/03/05 00:18:32;;;;;;;6.50;1.40;;;4.20;99.90;;;;;;5006564;28;20578;-59
2023/03/05 00:20:58;;;;;;;8.93;1.63;;;4.20;99.90;;;;;;4997954;28;20045;-59
2023/03/05 00:23:23;;;;;;;9.30;1.38;;;4.20;99.90;;;;;;5006993;28;20048;-60
2023/03/05 00:25:49;;;;;;;11.25;1.95;;;4.10;99.90;;;;;;4990294;28;20153;-60
2023/03/05 00:28:15;;;;;;;8.38;1.55;;;4.10;99.90;;;;;;4985377;28;20042;-60
2023/03/05 00:30:41;;;;;;;7.35;2.28;;;4.10;99.90;;;;;;4992944;28;20045;-60
2023/03/05 00:33:08;;;;;;;5.70;1.42;;;4.20;99.90;;;;;;4990895;28;20044;-60
2023/03/05 00:35:40;;;;;;;5.22;1.63;;;4.10;99.90;;;;;;4990890;28;20145;-60
2023/03/05 00:38:06;;;;;;;8.30;1.30;;;4.10;99.90;;;;;;5004458;28;20041;-58
2023/03/05 00:40:35;;;;;;;11.77;1.73;;;4.00;99.90;;;;;;5007362;28;20101;-58
2023/03/05 00:43:01;;;;;;;9.95;1.73;;;4.10;99.90;;;;;;5007277;28;20401;-57
2023/03/05 00:45:27;;;;;;;7.53;1.15;;;4.10;99.90;;;;;;5009400;28;20053;-59
2023/03/05 00:47:53;;;;;;;9.52;1.48;;;4.00;99.90;;;;;;5005354;28;20045;-59
2023/03/05 00:50:18;;;;;;;9.43;1.70;;;4.00;99.90;;;;;;4992504;28;20038;-59
2023/03/05 00:52:44;;;;;;;4.45;1.75;;;3.90;99.90;;;;;;5003350;28;20042;-60
2023/03/05 00:55:10;;;;;;;4.30;1.35;;;3.90;99.90;;;;;;4968634;28;20085;-60
2023/03/05 00:57:35;;;;;;;9.23;1.67;;;3.90;99.90;;;;;;5004052;28;20076;-58
2023/03/05 01:00:02;;;;;;;8.10;1.55;;;3.80;99.90;;;;;;4972824;28;20075;-58
2023/03/05 01:02:28;;;;;;;5.25;1.52;;;3.70;99.90;;;;;;4993547;28;20042;-59
2023/03/05 01:04:54;;;;;;;6.85;1.70;;;3.70;99.90;;;;;;5029382;22;20041;-55
2023/03/05 01:07:20;;;;;;;8.75;1.63;;;3.70;99.90;;;;;;4999187;28;20048;-58
2023/03/05 01:09:45;;;;;;;4.95;1.13;;;3.60;99.90;;;;;;5023795;28;20050;-55
2023/03/05 01:12:11;;;;;;;5.60;1.33;;;3.60;99.90;;;;;;5012934;28;20095;-58
2023/03/05 01:14:37;;;;;;;8.77;1.52;;;3.50;99.90;;;;;;5024603;28;20064;-57
2023/03/05 01:17:02;;;;;;;7.05;1.40;;;3.50;99.90;;;;;;5024454;28;20373;-58
2023/03/05 01:19:29;;;;;;;6.93;1.55;;;3.50;99.90;;;;;;5018722;28;20061;-59
2023/03/05 01:21:54;;;;;;;6.55;1.52;;;3.50;99.90;;;;;;5023196;28;20045;-56
2023/03/05 01:24:21;;;;;;;4.85;1.00;;;3.50;99.90;;;;;;4997192;28;20095;-58
2023/03/05 01:26:48;;;;;;;5.43;1.17;;;3.50;99.90;;;;;;5021511;28;20049;-59
2023/03/05 01:29:14;;;;;;;10.25;1.40;;;3.50;99.90;;;;;;5018515;28;20084;-58
2023/03/05 01:31:40;;;;;;;8.07;1.58;;;3.50;99.90;;;;;;5011472;28;20077;-57
2023/03/05 01:34:05;;;;;;;7.22;1.35;;;3.50;99.90;;;;;;5022327;28;20079;-57
2023/03/05 01:36:31;;;;;;;9.25;1.83;;;3.50;99.90;;;;;;5009804;28;20309;-55
2023/03/05 01:38:57;;;;;;;3.70;1.08;;;3.50;99.90;;;;;;5017707;28;20113;-53
2023/03/05 01:41:24;;;;;;;6.03;1.38;;;3.50;99.90;;;;;;5032771;28;20056;-55
2023/03/05 01:43:51;;;;;;;7.85;1.33;;;3.50;99.90;;;;;;5020092;28;20041;-57
2023/03/05 01:46:36;;;;;;;7.70;1.40;;;3.50;99.90;;;;;;5030010;28;20049;-56
2023/03/05 01:49:16;;;;;;;8.80;1.67;;;3.50;99.90;;;;;;5025663;28;20107;-55
2023/03/05 01:51:45;;;;;;;9.35;1.60;;;3.50;99.90;;;;;;5027946;28;20033;-53
2023/03/05 01:54:13;;;;;;;8.60;1.85;;;3.40;99.90;;;;;;5025049;28;20072;-55
2023/03/05 01:56:40;;;;;;;6.65;1.95;;;3.50;99.90;;;;;;5028009;28;20045;-56
2023/03/05 01:59:07;;;;;;;8.70;1.80;;;3.50;99.90;;;;;;5022757;28;20041;-55
2023/03/05 02:01:38;;;;;;;6.97;1.42;;;3.50;99.90;;;;;;5029206;28;20053;-53
2023/03/05 02:04:04;;;;;;;5.15;1.50;;;3.50;99.90;;;;;;5004167;28;20044;-56
2023/03/05 02:06:30;;;;;;;8.15;2.00;;;3.50;99.90;;;;;;5025556;28;20132;-59
2023/03/05 02:08:56;;;;;;;11.40;3.08;;;3.50;99.90;;;;;;5026619;28;20037;-55
2023/03/05 02:11:21;;;;;;;5.97;1.92;;;3.60;99.90;;;;;;5003674;28;20038;-55
2023/03/05 02:13:47;;;;;;;7.30;2.00;;;3.60;99.90;;;;;;5021987;28;20107;-56
2023/03/05 02:16:13;;;;;;;11.88;1.60;;;3.60;99.90;;;;;;5030675;28;20488;-54
2023/03/05 02:18:39;;;;;;;9.52;1.55;;;3.70;99.90;;;;;;5008066;28;20077;-57
2023/03/05 02:21:06;;;;;;;6.85;1.27;;;3.70;99.90;;;;;;5003161;28;20226;-59
2023/03/05 02:23:37;;;;;;;7.50;2.65;;;3.70;99.90;;;;;;4980296;28;20448;-56
2023/03/05 02:26:04;;;;;;;8.45;1.50;;;3.80;99.90;;;;;;5003518;28;20586;-57
2023/03/05 02:28:54;;;;;;;4.95;1.42;;;3.70;99.90;;;;;;4998956;28;20072;-55
2023/03/05 02:31:23;;;;;;;7.25;1.48;;;3.70;99.90;;;;;;5024073;28;20045;-54
2023/03/05 02:33:49;;;;;;;5.72;1.15;;;3.70;99.90;;;;;;5020659;28;20465;-55
2023/03/05 02:36:15;;;;;;;6.25;0.90;;;3.70;99.90;;;;;;5021223;28;20393;-54
2023/03/05 02:38:42;;;;;;;4.97;1.17;;;3.70;99.90;;;;;;5006091;28;20068;-54
2023/03/05 02:41:08;;;;;;;7.30;1.55;;;3.70;99.90;;;;;;5024248;28;20401;-55
2023/03/05 02:43:34;;;;;;;4.47;0.73;;;3.70;99.90;;;;;;4996950;28;20037;-55
2023/03/05 02:46:00;;;;;;;3.50;1.05;;;3.70;99.90;;;;;;5037892;28;20048;-57
2023/03/05 02:48:26;;;;;;;4.07;0.90;;;3.70;99.90;;;;;;5019669;28;20400;-56
2023/03/05 02:50:52;;;;;;;4.50;1.00;;;3.70;99.90;;;;;;5015760;28;20112;-58
2023/03/05 02:53:18;;;;;;;5.03;1.13;;;3.70;99.90;;;;;;5021941;28;20493;-59
2023/03/05 02:55:48;;;;;;;4.45;1.10;;;3.70;99.90;;;;;;5004693;28;20259;-56
2023/03/05 02:58:14;;;;;;;4.85;0.90;;;3.70;99.90;;;;;;5023891;28;20506;-56
2023/03/05 03:00:40;;;;;;;3.53;0.80;;;3.80;99.90;;;;;;5017427;28;20255;-56
2023/03/05 03:03:05;;;;;;;4.82;1.10;;;3.80;99.90;;;;;;5023211;28;20037;-57
2023/03/05 03:05:31;;;;;;;4.70;1.05;;;3.80;99.90;;;;;;5018970;28;20041;-57
2023/03/05 03:07:57;;;;;;;6.20;0.90;;;3.80;99.90;;;;;;5001369;28;20042;-58
2023/03/05 03:10:23;;;;;;;3.80;1.00;;;3.80;99.90;;;;;;5015228;28;20037;-57
2023/03/05 03:12:48;;;;;;;6.65;1.63;;;3.70;99.90;;;;;;5006320;28;20044;-57
2023/03/05 03:15:15;;;;;;;5.82;0.70;;;3.70;99.90;;;;;;5001892;28;20075;-56
2023/03/05 03:17:41;;;;;;;2.60;0.70;;;3.70;99.90;;;;;;5010148;28;20049;-56
2023/03/05 03:20:12;;;;;;;4.70;0.70;;;3.70;99.90;;;;;;5026236;28;20439;-58
2023/03/05 03:22:38;;;;;;;3.85;0.70;;;3.70;99.90;;;;;;5040275;28;20080;-59
2023/03/05 03:25:05;;;;;;;5.20;0.90;;;3.70;99.90;;;;;;5039449;28;20139;-59
2023/03/05 03:27:31;;;;;;;7.57;1.55;;;3.70;99.90;;;;;;5017143;28;20042;-58
2023/03/05 03:30:01;;;;;;;7.15;0.75;;;3.70;99.90;;;;;;4989558;28;20052;-57
2023/03/05 03:32:27;;;;;;;8.38;1.00;;;3.70;99.90;;;;;;5028260;28;20047;-56
2023/03/05 03:34:53;;;;;;;7.90;1.40;;;3.60;99.90;;;;;;5008376;28;20045;-58
2023/03/05 03:37:19;;;;;;;4.60;1.00;;;3.60;99.90;;;;;;5029971;28;20059;-57
2023/03/05 03:39:45;;;;;;;4.45;0.82;;;3.60;99.90;;;;;;5028304;28;20060;-57
2023/03/05 03:42:10;;;;;;;4.15;1.02;;;3.70;99.90;;;;;;5021544;28;20447;-55
2023/03/05 03:44:36;;;;;;;4.68;1.35;;;3.60;99.90;;;;;;5003987;28;20484;-56
2023/03/05 03:47:02;;;;;;;5.80;1.15;;;3.60;99.90;;;;;;5019360;28;20041;-56
2023/03/05 03:49:28;;;;;;;6.90;1.17;;;3.60;99.90;;;;;;5007653;28;20072;-56
2023/03/05 03:51:54;;;;;;;5.47;0.95;;;3.60;99.90;;;;;;5008850;28;20044;-54
2023/03/05 03:54:21;;;;;;;6.07;1.17;;;3.60;99.90;;;;;;5021780;28;20053;-58
2023/03/05 03:56:46;;;;;;;3.85;1.08;;;3.60;99.90;;;;;;5030085;28;20049;-53
2023/03/05 03:59:13;;;;;;;5.15;1.00;;;3.60;99.90;;;;;;4996577;28;20067;-56
2023/03/05 04:01:39;;;;;;;4.22;0.68;;;3.60;99.90;;;;;;5005772;28;20087;-57
2023/03/05 04:04:05;;;;;;;9.63;2.53;;;3.60;99.90;;;;;;5026661;28;20439;-56
2023/03/05 04:06:32;;;;;;;5.68;0.85;;;3.60;99.90;;;;;;5013832;28;20169;-56
2023/03/05 04:08:58;;;;;;;7.28;1.00;;;3.60;99.90;;;;;;5006602;28;20053;-55
2023/03/05 04:11:24;;;;;;;5.07;0.88;;;3.50;99.90;;;;;;5017724;28;20048;-56
2023/03/05 04:13:50;;;;;;;8.63;1.23;;;3.60;99.90;;;;;;5028854;28;20033;-55
2023/03/05 04:16:16;;;;;;;7.50;2.58;;;3.60;99.90;;;;;;5002366;28;20124;-57
2023/03/05 04:18:43;;;;;;;6.45;0.90;;;3.60;99.90;;;;;;5027577;28;20052;-57
2023/03/05 04:21:09;;;;;;;4.13;0.80;;;3.60;99.90;;;;;;5025343;28;20049;-58
2023/03/05 04:23:35;;;;;;;6.13;1.65;;;3.60;99.90;;;;;;5018735;28;20052;-56
2023/03/05 04:26:01;;;;;;;5.43;1.40;;;3.60;99.90;;;;;;5002868;28;20033;-58
2023/03/05 04:28:27;;;;;;;5.70;1.42;;;3.60;99.90;;;;;;5015557;28;20097;-57
2023/03/05 04:30:53;;;;;;;9.27;1.40;;;3.60;99.90;;;;;;5013723;28;20052;-59
2023/03/05 04:33:19;;;;;;;9.93;1.27;;;3.70;99.90;;;;;;5012415;28;20038;-56
2023/03/05 04:35:45;;;;;;;4.85;1.00;;;3.70;99.90;;;;;;5029682;28;20045;-57
2023/03/05 04:38:11;;;;;;;7.70;1.90;;;3.60;99.90;;;;;;5005427;28;20063;-57
2023/03/05 04:40:37;;;;;;;10.38;1.52;;;3.60;99.90;;;;;;5024140;28;20072;-59
2023/03/05 04:43:03;;;;;;;6.35;1.30;;;3.60;99.90;;;;;;5011539;28;20557;-57
2023/03/05 04:45:29;;;;;;;8.65;1.25;;;3.60;99.90;;;;;;5025225;28;20046;-57
2023/03/05 04:47:56;;;;;;;6.18;1.27;;;3.60;99.90;;;;;;5020530;28;20042;-58
2023/03/05 04:50:22;;;;;;;7.18;1.10;;;3.70;99.90;;;;;;5002863;28;20033;-56
2023/03/05 04:52:47;;;;;;;5.03;1.15;;;3.60;99.90;;;;;;5011165;28;20063;-56
2023/03/05 04:55:14;;;;;;;11.70;2.55;;;3.70;99.90;;;;;;5021728;28;20384;-58
2023/03/05 04:57:40;;;;;;;12.43;1.65;;;3.70;99.90;;;;;;5022433;28;20057;-58
2023/03/05 05:00:13;;;;;;;11.20;1.75;;;3.60;99.90;;;;;;5018047;28;20067;-57
2023/03/05 05:02:41;;;;;;;12.03;1.50;;;3.60;99.90;;;;;;5018292;28;20114;-57
2023/03/05 05:05:08;;;;;;;12.68;1.67;;;3.60;99.90;;;;;;5012147;28;20255;-56
2023/03/05 05:07:33;;;;;;;6.45;1.30;;;3.60;99.90;;;;;;5018974;28;20519;-58
2023/03/05 05:09:59;;;;;;;3.65;1.05;;;3.70;99.90;;;;;;5024551;28;20037;-58
2023/03/05 05:12:28;;;;;;;7.93;1.08;;;3.60;99.90;;;;;;5023451;28;20052;-59
2023/03/05 05:14:54;;;;;;;8.20;1.60;;;3.60;99.90;;;;;;5022318;28;20448;-57
2023/03/05 05:17:20;;;;;;;8.40;1.40;;;3.60;99.90;;;;;;5027752;28;20048;-57
2023/03/05 05:19:45;;;;;;;7.95;1.23;;;3.60;99.90;;;;;;4979644;28;20048;-58
2023/03/05 05:22:11;;;;;;;9.70;1.40;;;3.60;99.90;;;;;;5023240;28;20049;-58
2023/03/05 05:24:37;;;;;;;7.95;1.15;;;3.60;99.90;;;;;;5014628;28;20049;-59
2023/03/05 05:27:03;;;;;;;9.73;1.25;;;3.60;99.90;;;;;;5025455;28;20061;-58
2023/03/05 05:29:29;;;;;;;3.85;1.00;;;3.60;99.90;;;;;;5008246;28;20472;-58
2023/03/05 05:31:55;;;;;;;10.55;1.65;;;3.60;99.90;;;;;;5019728;28;20508;-56
2023/03/05 05:34:21;;;;;;;7.57;1.23;;;3.60;99.90;;;;;;5023713;28;20041;-56
2023/03/05 05:36:46;;;;;;;4.32;1.23;;;3.60;99.90;;;;;;4986537;28;20045;-58
2023/03/05 05:39:12;;;;;;;12.35;1.40;;;3.50;99.90;;;;;;5001676;28;20495;-56
2023/03/05 05:41:38;;;;;;;5.47;1.05;;;3.50;99.90;;;;;;5020574;28;20041;-59
2023/03/05 05:44:03;;;;;;;6.13;1.25;;;3.50;99.90;;;;;;5019419;28;20527;-58
2023/03/05 05:46:29;;;;;;;4.38;1.00;;;3.50;99.90;;;;;;5025287;28;20096;-57
2023/03/05 05:48:55;;;;;;;3.67;1.42;;;3.50;99.90;;;;;;5006312;28;20060;-56
2023/03/05 05:51:23;;;;;;;7.55;0.98;;;3.50;99.90;;;;;;5025223;28;20049;-56
2023/03/05 05:53:50;;;;;;;10.50;1.40;;;3.50;99.90;;;;;;5010890;28;20124;-57
2023/03/05 05:56:16;;;;;;;4.78;1.05;;;3.40;99.90;;;;;;5007859;28;20033;-58
2023/03/05 05:58:43;;;;;;;5.50;1.20;;;3.40;99.90;;;;;;5028305;28;20041;-54
2023/03/05 06:01:27;;;;;;;5.65;1.10;;;3.60;99.90;;;;;;5032047;28;20041;-57
2023/03/05 06:03:54;;;;;;;5.18;1.63;;;3.40;99.90;;;;;;5026933;28;20045;-58
2023/03/05 06:06:21;;;;;;;5.72;1.00;;;3.30;99.90;;;;;;5030013;28;20050;-56
2023/03/05 06:08:47;;;;;;;5.95;1.13;;;3.30;99.90;;;;;;5027638;28;20431;-56
2023/03/05 06:11:13;;;;;;;7.03;1.10;;;3.30;99.90;;;;;;4989857;28;20041;-56
2023/03/05 06:13:39;;;;;;;6.88;1.00;;;3.30;99.90;;;;;;5013265;28;20041;-59
2023/03/05 06:16:10;;;;;;;7.07;0.95;;;3.30;99.90;;;;;;5005924;28;20055;-59
2023/03/05 06:18:36;;;;;;;4.18;0.90;;;3.30;99.90;;;;;;4998324;28;20056;-59
2023/03/05 06:21:08;;;;;;;7.65;1.00;;;3.30;99.90;;;;;;5021085;28;20412;-58
2023/03/05 06:23:34;;;;;;;6.97;1.75;;;3.30;99.90;;;;;;5008185;28;20114;-57
2023/03/05 06:26:02;;;;;;;5.53;1.23;;;3.20;99.90;;;;;;5003813;28;20790;-57
2023/03/05 06:28:29;;;;;;;4.70;0.90;;;3.30;99.90;;;;;;5022417;28;20484;-59
2023/03/05 06:31:05;;;;;;;7.03;1.35;;;3.20;99.90;;;;;;5019327;28;20046;-58
2023/03/05 06:33:32;;;;;;;5.45;0.90;;;3.20;99.90;;;;;;4996236;28;20152;-57
2023/03/05 06:35:58;;;;;;;4.07;1.30;;;3.20;99.90;;;;;;4991831;28;20561;-58
2023/03/05 06:38:24;;;;;;;28.52;12.65;;;3.20;99.90;;;;;;5003241;28;20088;-55
2023/03/05 06:40:50;;;;;;;32.13;14.23;;;3.20;99.90;;;;;;5025431;28;20546;-56
2023/03/05 06:43:16;;;;;;;12.35;4.70;;;3.20;99.90;;;;;;5023741;28;20038;-57
2023/03/05 06:45:42;;;;;;;9.75;3.63;;;3.20;99.90;;;;;;5027962;28;20045;-57
2023/03/05 06:48:08;;;;;;;10.57;2.38;;;3.20;99.90;;;;;;5042217;28;20407;-58
2023/03/05 06:50:35;;;;;;;11.88;2.13;;;3.10;99.90;;;;;;5027409;28;20033;-56
2023/03/05 06:53:00;;;;;;;11.80;2.35;;;3.10;99.90;;;;;;5025028;28;20081;-56
2023/03/05 06:55:26;;;;;;;8.63;1.30;;;3.10;99.90;;;;;;5016085;28;20076;-56
2023/03/05 06:57:52;;;;;;;8.15;1.20;;;3.10;99.90;;;;;;5021379;28;20542;-57
2023/03/05 07:00:18;;;;;;;4.55;1.10;;;3.00;99.90;;;;;;5022785;28;20038;-56
2023/03/05 07:02:44;;;;;;;7.45;1.20;;;3.10;99.90;;;;;;5009748;28;20132;-56
2023/03/05 07:05:10;;;;;;;7.47;1.00;;;3.10;99.90;;;;;;5033907;23;20128;-80
2023/03/05 07:07:35;;;;;;;9.77;2.20;;;3.10;99.90;;;;;;5032305;28;20060;-79
2023/03/05 07:10:02;;;;;;;5.70;1.35;;;3.10;99.90;;;;;;5024779;28;20038;-80
2023/03/05 07:12:27;;;;;;;7.28;1.10;;;3.10;99.90;;;;;;5040020;28;20046;-81
2023/03/05 07:14:53;;;;;;;9.82;1.40;;;3.10;99.90;;;;;;5027931;28;20413;-82
2023/03/05 07:17:20;;;;;;;8.23;1.15;;;3.30;99.90;;;;;;5013848;28;20186;-83
2023/03/05 07:19:46;;;;;;;7.85;2.00;;;3.00;99.90;;;;;;4988531;28;20076;-82
2023/03/05 07:22:11;;;;;;;9.93;1.33;;;3.60;99.90;;;;;;5038933;28;20038;-82
2023/03/05 07:24:37;;;;;;;7.53;1.60;;;3.10;99.90;;;;;;5005570;28;20488;-80
2023/03/05 07:27:03;;;;;;;9.07;2.00;;;3.10;99.90;;;;;;5000391;28;20037;-81
2023/03/05 07:29:29;;;;;;;10.18;2.55;;;3.10;99.90;;;;;;5033844;28;20445;-81
2023/03/05 07:31:54;;;;;;;8.50;2.45;;;3.60;99.90;;;;;;5017478;28;20060;-81
2023/03/05 07:34:20;;;;;;;12.55;3.42;;;3.30;99.90;;;;;;5003810;28;20812;-82
2023/03/05 07:36:50;;;;;;;8.23;2.40;;;3.20;99.90;;;;;;5016945;28;20426;-81
2023/03/05 07:39:17;;;;;;;8.88;3.38;;;3.30;99.90;;;;;;5043395;28;20103;-81
2023/03/05 07:41:44;;;;;;;13.73;3.42;;;3.30;99.90;;;;;;5029338;28;20041;-81
2023/03/05 07:44:10;;;;;;;13.40;5.38;;;3.40;99.90;;;;;;5026628;28;20037;-81
2023/03/05 07:46:36;;;;;;;13.57;4.57;;;3.50;99.90;;;;;;4986614;28;20104;-81
2023/03/05 07:49:02;;;;;;;11.32;2.80;;;3.80;99.90;;;;;;5015234;28;20030;-81
2023/03/05 07:51:28;;;;;;;22.30;7.90;;;3.60;99.90;;;;;;5017930;28;20647;-80
2023/03/05 07:53:56;;;;;;;21.63;8.63;;;3.60;99.90;;;;;;5036993;28;20033;-80
2023/03/05 07:56:30;;;;;;;17.35;8.43;;;3.70;99.90;;;;;;5036190;28;20044;-80
2023/03/05 07:58:57;;;;;;;21.02;9.27;;;4.00;99.90;;;;;;5033133;28;20050;-83
2023/03/05 08:01:23;;;;;;;20.40;8.00;;;3.80;99.90;;;;;;5039655;28;20033;-81
2023/03/05 08:03:48;;;;;;;17.75;7.75;;;3.90;99.90;;;;;;5041998;28;20139;-81
2023/03/05 08:06:15;;;;;;;8.77;3.13;;;4.00;99.90;;;;;;5019531;28;20053;-81
2023/03/05 08:08:40;;;;;;;12.38;4.97;;;4.30;99.90;;;;;;5019002;28;20129;-80
2023/03/05 08:11:09;;;;;;;11.40;4.10;;;4.10;99.90;;;;;;5035788;28;20080;-80
2023/03/05 08:13:35;;;;;;;19.50;3.22;;;4.30;99.90;;;;;;5030230;28;20049;-80
2023/03/05 08:16:06;;;;;;;18.60;2.80;;;4.40;99.90;;;;;;5035462;28;20060;-81
2023/03/05 08:18:31;;;;;;;9.35;1.77;;;4.40;99.90;;;;;;5035925;28;20052;-78
2023/03/05 08:20:58;;;;;;;16.33;2.25;;;4.60;99.90;;;;;;5018758;28;20037;-80
2023/03/05 08:23:26;;;;;;;10.90;2.15;;;4.70;99.90;;;;;;5004922;28;20052;-80
2023/03/05 08:25:52;;;;;;;13.27;2.88;;;4.70;99.90;;;;;;5016385;28;20060;-81
2023/03/05 08:28:18;;;;;;;7.47;1.88;;;4.80;99.90;;;;;;4989628;28;20100;-80
2023/03/05 08:30:47;;;;;;;11.43;2.13;;;4.90;99.90;;;;;;5019103;28;20046;-81
2023/03/05 08:33:14;;;;;;;8.10;1.85;;;5.00;99.90;;;;;;5034037;28;20041;-81
2023/03/05 08:35:40;;;;;;;10.57;1.88;;;5.00;99.90;;;;;;5021000;28;20026;-80
2023/03/05 08:38:05;;;;;;;8.43;1.50;;;5.20;99.90;;;;;;4994731;28;20053;-80
2023/03/05 08:40:31;;;;;;;9.05;1.42;;;5.10;99.90;;;;;;5022448;28;20038;-80
2023/03/05 08:43:00;;;;;;;7.10;1.30;;;5.10;99.90;;;;;;5004859;28;20037;-80
2023/03/05 08:45:27;;;;;;;10.35;1.48;;;5.20;99.90;;;;;;5027406;28;20103;-79
2023/03/05 08:47:56;;;;;;;9.05;1.30;;;5.30;99.90;;;;;;5013784;28;20084;-80
2023/03/05 08:50:22;;;;;;;6.70;1.30;;;5.40;99.90;;;;;;5032756;28;20049;-80
2023/03/05 08:52:49;;;;;;;10.30;1.42;;;5.50;99.90;;;;;;5033318;28;20056;-80
2023/03/05 08:55:15;;;;;;;21.40;2.47;;;5.50;99.90;;;;;;5034476;28;20044;-80
2023/03/05 08:57:41;;;;;;;7.38;1.20;;;5.60;99.90;;;;;;5034472;28;20062;-82
2023/03/05 09:00:09;;;;;;;9.48;1.75;;;5.60;99.90;;;;;;5015111;28;20097;-82
2023/03/05 09:02:35;;;;;;;7.97;1.45;;;5.60;99.90;;;;;;5012531;28;20060;-80
2023/03/05 09:05:02;;;;;;;7.90;1.60;;;5.70;99.90;;;;;;5017178;28;20045;-81
2023/03/05 09:07:28;;;;;;;9.60;2.50;;;5.80;99.90;;;;;;5018276;28;20045;-81
2023/03/05 09:09:53;;;;;;;9.60;2.35;;;6.00;99.90;;;;;;5030995;28;20044;-80
2023/03/05 09:12:19;;;;;;;6.78;1.48;;;6.10;99.90;;;;;;5042235;28;20041;-79
2023/03/05 09:14:45;;;;;;;7.68;1.67;;;6.00;99.90;;;;;;5040777;28;20048;-80
2023/03/05 09:17:11;;;;;;;6.65;2.38;;;6.20;99.90;;;;;;5033785;28;20522;-81
2023/03/05 09:19:36;;;;;;;7.25;1.70;;;6.40;99.90;;;;;;4984347;28;20060;-80
2023/03/05 09:22:02;;;;;;;11.45;1.75;;;6.30;99.90;;;;;;4988071;28;20069;-81
2023/03/05 09:24:28;;;;;;;6.95;1.58;;;6.30;99.90;;;;;;5052294;28;20054;-80
2023/03/05 09:26:58;;;;;;;6.80;1.92;;;6.30;99.90;;;;;;5014099;28;20056;-80
2023/03/05 09:29:25;;;;;;;6.38;1.90;;;6.40;99.90;;;;;;5020815;28;20042;-80
2023/03/05 09:31:51;;;;;;;5.90;1.42;;;6.40;99.90;;;;;;5032812;28;20041;-80
2023/03/05 09:34:16;;;;;;;9.35;1.20;;;6.40;99.90;;;;;;5013002;28;20172;-81
2023/03/05 09:36:42;;;;;;;10.35;1.48;;;6.30;99.90;;;;;;5000231;28;20061;-80
2023/03/05 09:39:08;;;;;;;7.95;1.00;;;6.30;99.90;;;;;;5014874;28;20436;-80
2023/03/05 09:41:40;;;;;;;6.75;1.38;;;6.20;99.90;;;;;;4999620;28;20060;-81
2023/03/05 09:44:33;;;;;;;6.07;1.80;;;6.10;99.90;;;;;;5032250;28;20037;-81
2023/03/05 09:47:21;;;;;;;8.73;1.73;;;6.10;99.90;;;;;;5016831;28;20128;-79
2023/03/05 09:49:58;;;;;;;8.45;1.30;;;6.20;99.90;;;;;;5007548;28;20414;-79
2023/03/05 09:52:52;;;;;;;7.25;1.67;;;6.40;99.90;;;;;;5028585;28;20037;-80
2023/03/05 09:55:27;;;;;;;8.75;2.72;;;6.70;99.90;;;;;;5015546;28;20067;-81
2023/03/05 09:57:57;;;;;;;11.45;2.00;;;7.00;99.90;;;;;;5033118;28;20041;-80
2023/03/05 10:00:44;;;;;;;7.07;1.35;;;6.80;99.90;;;;;;5017030;28;20605;-81
2023/03/05 10:03:27;;;;;;;6.63;1.10;;;6.60;99.90;;;;;;5031931;28;20106;-82
2023/03/05 10:06:21;;;;;;;3.05;0.90;;;6.50;99.90;;;;;;5034042;28;20045;-79
2023/03/05 10:09:03;;;;;;;5.00;1.23;;;6.40;99.90;;;;;;5027655;28;20080;-81
2023/03/05 10:11:50;;;;;;;7.82;1.30;;;6.30;99.90;;;;;;5018657;28;20033;-80
2023/03/05 10:14:40;;;;;;;7.78;1.20;;;6.40;99.90;;;;;;5018885;28;20041;-80
2023/03/05 10:17:24;;;;;;;5.90;1.58;;;6.50;99.90;;;;;;5018118;28;20394;-81
2023/03/05 10:20:26;;;;;;;7.97;0.98;;;6.60;99.90;;;;;;5041713;28;20406;-81
2023/03/05 10:23:11;;;;;;;8.82;1.52;;;6.90;99.90;;;;;;5022426;28;20045;-81
2023/03/05 10:25:58;;;;;;;6.10;1.58;;;7.00;99.90;;;;;;5035693;28;20068;-81
2023/03/05 10:28:52;;;;;;;9.13;1.63;;;7.00;99.90;;;;;;5021351;28;20045;-81
2023/03/05 10:31:39;;;;;;;4.53;0.93;;;7.20;99.90;;;;;;5023044;28;20041;-80
2023/03/05 10:34:22;;;;;;;5.70;0.80;;;7.40;99.90;;;;;;5017216;28;20044;-80
2023/03/05 10:37:25;;;;;;;8.43;1.10;;;7.70;99.90;;;;;;5029792;28;20048;-81
2023/03/05 10:40:14;;;;;;;4.32;1.02;;;7.80;99.90;;;;;;5038226;28;20049;-80
2023/03/05 10:42:51;;;;;;;3.08;0.80;;;7.60;99.90;;;;;;5053504;28;20091;-81
2023/03/05 10:45:22;;;;;;;6.45;1.30;;;7.40;99.90;;;;;;5035419;28;20038;-82
2023/03/05 10:48:00;;;;;;;8.27;1.92;;;7.10;99.90;;;;;;5022382;28;20097;-81
2023/03/05 10:50:32;;;;;;;8.38;2.47;;;6.90;99.90;;;;;;5016717;28;20065;-81
2023/03/05 10:53:13;;;;;;;5.22;1.67;;;6.90;99.90;;;;;;5036932;28;20056;-81
2023/03/05 10:55:39;;;;;;;7.05;2.35;;;6.90;99.90;;;;;;5037190;28;20041;-80
2023/03/05 10:58:13;;;;;;;2.85;1.02;;;7.00;99.90;;;;;;4997632;28;20378;-80
2023/03/05 11:00:39;;;;;;;;;;;7.30;99.90;;;;;;5006391;28;20061;-82
2023/03/05 11:03:09;;;;;;;7.25;1.00;;;7.30;99.90;;;;;;5018466;28;19975;-80
2023/03/05 11:05:43;;;;;;;6.20;1.63;;;7.10;99.90;;;;;;5020522;28;20542;-82
2023/03/05 11:08:36;;;;;;;8.20;1.52;;;7.40;99.90;;;;;;5036956;28;20046;-80
2023/03/05 11:11:16;;;;;;;4.80;1.00;;;7.40;99.90;;;;;;5041176;28;20033;-82
2023/03/05 11:13:57;;;;;;;5.35;0.82;;;7.70;99.90;;;;;;5031442;28;20080;-79
2023/03/05 11:16:32;;;;;;;3.67;0.93;;;7.50;99.90;;;;;;5029489;28;20037;-81
2023/03/05 11:19:36;;;;;;;4.07;0.85;;;7.30;99.90;;;;;;5017702;28;20091;-80
2023/03/05 11:22:11;;;;;;;5.68;0.75;;;7.20;99.90;;;;;;5032073;28;20049;-80
2023/03/05 11:24:37;;;;;;;8.73;0.95;;;7.20;99.90;;;;;;5026803;28;20045;-80
2023/03/05 11:27:41;;;;;;;5.88;0.77;;;7.40;99.90;;;;;;5016023;28;20650;-82
2023/03/05 11:30:26;;;;;;;4.07;1.15;;;7.60;99.90;;;;;;5024578;28;20128;-79
2023/03/05 11:33:15;;;;;;;13.18;3.58;;;7.60;99.90;;;;;;5023335;28;20033;-80
2023/03/05 11:35:42;;;;;;;3.97;0.68;;;7.50;99.90;;;;;;5030386;28;20521;-79
2023/03/05 11:38:24;;;;;;;7.05;1.45;;;7.40;99.90;;;;;;5040813;28;20501;-80
2023/03/05 11:40:52;;;;;;;8.45;2.03;;;7.30;99.90;;;;;;5018344;28;20037;-80
2023/03/05 11:43:24;;;;;;;7.82;1.90;;;7.20;99.90;;;;;;5027893;28;20026;-79
2023/03/05 11:45:53;;;;;;;4.78;1.00;;;7.10;99.90;;;;;;5035289;28;20099;-80
2023/03/05 11:48:24;;;;;;;2.70;0.95;;;7.20;99.90;;;;;;5034016;28;20029;-80
2023/03/05 11:50:59;;;;;;;8.70;2.10;;;7.40;99.90;;;;;;5037908;28;20068;-80
2023/03/05 11:53:35;;;;;;;4.05;1.38;;;7.70;99.90;;;;;;5015920;28;20156;-80
2023/03/05 11:56:19;;;;;;;5.78;1.25;;;7.90;99.90;;;;;;5046023;28;20050;-81
2023/03/05 11:58:57;;;;;;;4.30;1.00;;;7.80;99.90;;;;;;5036283;28;20041;-80
2023/03/05 12:01:26;;;;;;;8.52;1.80;;;7.50;99.90;;;;;;5015637;28;20553;-80
2023/03/05 12:03:52;;;;;;;7.28;1.90;;;7.20;99.90;;;;;;4992258;28;1130008;-79
2023/03/05 12:06:43;;;;;;;5.97;1.55;;;7.20;99.90;;;;;;5031705;28;20046;-80
2023/03/05 12:09:23;;;;;;;5.03;1.35;;;7.10;99.90;;;;;;5010828;28;20046;-79
2023/03/05 12:11:56;;;;;;;8.00;2.05;;;7.10;99.90;;;;;;5023638;28;20490;-80
2023/03/05 12:14:24;;;;;;;4.47;1.30;;;7.40;99.90;;;;;;5020714;28;20071;-80
2023/03/05 12:17:00;;;;;;;4.43;1.20;;;7.50;99.90;;;;;;5022688;28;20041;-79
2023/03/05 12:19:40;;;;;;;7.75;1.52;;;7.60;99.90;;;;;;5015159;28;20068;-79
2023/03/05 12:22:24;;;;;;;6.28;1.20;;;7.70;99.90;;;;;;5023142;28;20057;-79
2023/03/05 12:24:50;;;;;;;3.08;0.80;;;7.80;99.90;;;;;;5011773;28;20045;-80
2023/03/05 12:27:34;;;;;;;7.57;1.95;;;7.90;99.90;;;;;;4996232;28;20041;-80
2023/03/05 12:30:00;;;;;;;2.25;1.00;;;7.90;99.90;;;;;;5016059;28;20128;-78
2023/03/05 12:32:32;;;;;;;3.42;1.10;;;7.90;99.90;;;;;;5030174;28;20033;-80
2023/03/05 12:35:21;;;;;;;4.03;0.90;;;8.50;99.90;;;;;;5035053;28;20037;-80
2023/03/05 12:37:49;;;;;;;6.32;1.20;;;8.10;99.90;;;;;;5026661;28;20045;-79
2023/03/05 12:40:21;;;;;;;4.18;0.98;;;8.10;99.90;;;;;;5028221;28;20046;-80
2023/03/05 12:43:02;;;;;;;9.18;1.38;;;8.10;99.90;;;;;;5031221;28;20045;-81
2023/03/05 12:45:39;;;;;;;3.33;0.98;;;8.10;99.90;;;;;;5045545;28;20126;-80
2023/03/05 12:48:10;;;;;;;4.70;0.90;;;8.00;99.90;;;;;;5012471;28;20042;-79
2023/03/05 12:50:36;;;;;;;6.07;1.27;;;7.80;99.90;;;;;;5031660;28;20120;-80
2023/03/05 12:53:19;;;;;;;5.70;1.17;;;7.60;99.90;;;;;;5025917;28;20073;-80
2023/03/05 12:55:54;;;;;;;5.40;1.30;;;7.50;99.90;;;;;;5012150;28;20037;-79
2023/03/05 12:58:28;;;;;;;9.43;1.75;;;7.40;99.90;;;;;;5025956;28;20041;-81
2023/03/05 13:01:09;;;;;;;19.52;6.55;;;7.30;99.90;;;;;;5122904;27;20464;-60
2023/03/05 13:03:42;;;;;;;8.02;2.70;;;7.30;99.90;;;;;;5096488;28;20698;-60
2023/03/05 13:08:59;;;;;;;14.05;5.00;;;7.10;99.90;;;;;;5084074;28;20051;-57
2023/03/05 13:11:27;;;;;;;9.75;2.05;;;7.10;99.90;;;;;;5058134;28;20043;-57